createdAt,value
2023-04-30T00:00:16.400Z,1.67
2023-04-30T00:02:42.817Z,1.88
2023-04-30T00:05:09.272Z,1.90
2023-04-30T00:07:35.693Z,2.00
2023-04-30T00:10:02.611Z,2.72
2023-04-30T00:12:28.787Z,1.50
2023-04-30T00:14:56.106Z,2.00
2023-04-30T00:17:22.135Z,1.55
2023-04-30T00:19:48.330Z,1.55
2023-04-30T00:22:14.461Z,1.70
2023-04-30T00:24:40.767Z,1.70
2023-04-30T00:27:06.857Z,2.13
2023-04-30T00:29:35.583Z,1.50
2023-04-30T00:32:01.679Z,1.65
2023-04-30T00:34:27.922Z,1.75
2023-04-30T00:36:54.312Z,1.77
2023-04-30T00:39:20.526Z,1.25
2023-04-30T00:41:49.667Z,1.50
2023-04-30T00:44:15.931Z,1.60
2023-04-30T00:46:42.155Z,1.48
2023-04-30T00:49:08.439Z,1.65
2023-04-30T00:51:35.290Z,1.88
2023-04-30T00:54:02.887Z,2.17
2023-04-30T00:56:30.615Z,1.63
2023-04-30T00:58:57.641Z,2.33
2023-04-30T01:01:31.287Z,1.70
2023-04-30T01:03:57.879Z,2.17
2023-04-30T01:06:26.417Z,1.52
2023-04-30T01:08:52.973Z,1.50
2023-04-30T01:11:46.684Z,1.52
2023-04-30T01:14:47.924Z,1.77
2023-04-30T01:17:38.536Z,1.45
2023-04-30T01:20:07.410Z,2.90
2023-04-30T01:22:55.894Z,1.77
2023-04-30T01:25:45.438Z,2.25
2023-04-30T01:28:19.857Z,1.50
2023-04-30T01:30:46.459Z,2.28
2023-04-30T01:33:13.437Z,1.73
2023-04-30T01:35:48.168Z,1.67
2023-04-30T01:38:51.641Z,1.60
2023-04-30T01:41:35.351Z,1.65
2023-04-30T01:44:28.005Z,1.42
2023-04-30T01:47:07.674Z,1.23
2023-04-30T01:49:55.067Z,1.80
2023-04-30T01:52:39.230Z,1.55
2023-04-30T01:55:09.890Z,1.40
2023-04-30T01:57:38.821Z,1.58
2023-04-30T02:00:09.659Z,1.60
2023-04-30T02:02:35.950Z,1.60
2023-04-30T02:05:02.306Z,1.73
2023-04-30T02:07:41.864Z,1.55
2023-04-30T02:10:08.915Z,1.45
2023-04-30T02:12:35.400Z,1.60
2023-04-30T02:15:03.178Z,1.67
2023-04-30T02:17:32.717Z,2.08
2023-04-30T02:19:59.721Z,2.05
2023-04-30T02:22:26.544Z,2.70
2023-04-30T02:24:56.980Z,2.00
2023-04-30T02:27:28.002Z,1.70
2023-04-30T02:29:54.485Z,1.80
2023-04-30T02:32:21.443Z,1.77
2023-04-30T02:34:47.663Z,1.60
2023-04-30T02:37:14.091Z,1.88
2023-04-30T02:39:40.896Z,1.55
2023-04-30T02:42:07.743Z,1.58
2023-04-30T02:44:34.336Z,3.90
2023-04-30T02:47:04.267Z,1.65
2023-04-30T02:49:33.747Z,1.73
2023-04-30T02:52:00.500Z,1.60
2023-04-30T02:54:26.724Z,1.90
2023-04-30T02:56:53.233Z,2.13
2023-04-30T02:59:19.583Z,2.28
2023-04-30T03:01:45.748Z,2.15
2023-04-30T03:04:12.423Z,2.05
2023-04-30T03:06:38.749Z,2.20
2023-04-30T03:09:07.712Z,2.75
2023-04-30T03:11:37.325Z,1.67
2023-04-30T03:14:04.555Z,1.65
2023-04-30T03:16:31.007Z,1.63
2023-04-30T03:18:57.500Z,1.92
2023-04-30T03:21:23.757Z,1.83
2023-04-30T03:23:50.105Z,2.05
2023-04-30T03:26:16.482Z,1.52
2023-04-30T03:28:42.614Z,2.13
2023-04-30T03:31:11.706Z,2.25
2023-04-30T03:33:37.969Z,1.73
2023-04-30T03:36:04.273Z,1.95
2023-04-30T03:38:30.632Z,3.08
2023-04-30T03:40:56.963Z,1.60
2023-04-30T03:43:23.057Z,1.95
2023-04-30T03:45:49.459Z,2.03
2023-04-30T03:48:15.945Z,2.15
2023-04-30T03:50:42.231Z,2.47
2023-04-30T03:53:08.395Z,1.98
2023-04-30T03:55:35.295Z,1.77
2023-04-30T03:58:01.648Z,1.92
2023-04-30T04:00:27.978Z,2.40
2023-04-30T04:02:54.880Z,2.78
2023-04-30T04:05:21.033Z,2.00
2023-04-30T04:07:50.134Z,2.35
2023-04-30T04:10:16.534Z,1.65
2023-04-30T04:12:42.694Z,1.80
2023-04-30T04:15:09.466Z,1.55
2023-04-30T04:17:35.685Z,2.47
2023-04-30T04:20:01.840Z,1.67
2023-04-30T04:22:28.030Z,2.28
2023-04-30T04:24:57.286Z,2.00
2023-04-30T04:27:23.675Z,1.27
2023-04-30T04:29:50.009Z,2.25
2023-04-30T04:32:16.444Z,2.53
2023-04-30T04:34:43.351Z,2.33
2023-04-30T04:37:09.918Z,1.83
2023-04-30T04:39:37.144Z,2.17
2023-04-30T04:42:04.628Z,2.10
2023-04-30T04:44:30.960Z,1.70
2023-04-30T04:46:57.684Z,1.85
2023-04-30T04:49:26.877Z,1.95
2023-04-30T04:51:53.156Z,2.10
2023-04-30T04:54:23.308Z,1.95
2023-04-30T04:56:49.563Z,1.85
2023-04-30T04:59:18.436Z,2.03
2023-04-30T05:01:47.616Z,2.08
2023-04-30T05:04:14.082Z,2.25
2023-04-30T05:06:41.248Z,1.95
2023-04-30T05:09:09.246Z,2.05
2023-04-30T05:11:36.025Z,2.38
2023-04-30T05:14:02.314Z,2.25
2023-04-30T05:16:31.369Z,2.08
2023-04-30T05:18:57.616Z,2.05
2023-04-30T05:21:25.749Z,2.38
2023-04-30T05:23:52.062Z,2.35
2023-04-30T05:26:18.995Z,2.30
2023-04-30T05:28:45.273Z,2.50
2023-04-30T05:31:11.522Z,2.00
2023-04-30T05:33:37.778Z,2.38
2023-04-30T05:36:04.250Z,1.90
2023-04-30T05:38:30.503Z,2.45
2023-04-30T05:40:56.744Z,2.42
2023-04-30T05:43:23.070Z,2.33
2023-04-30T05:45:49.473Z,2.78
2023-04-30T05:48:18.166Z,3.13
2023-04-30T05:50:44.511Z,2.55
2023-04-30T05:53:13.027Z,3.17
2023-04-30T05:55:39.465Z,2.85
2023-04-30T05:58:06.141Z,2.55
2023-04-30T06:00:32.385Z,2.60
2023-04-30T06:02:58.667Z,2.97
2023-04-30T06:05:25.076Z,2.70
2023-04-30T06:07:51.631Z,2.67
2023-04-30T06:10:18.097Z,3.22
2023-04-30T06:12:44.332Z,2.53
2023-04-30T06:15:13.416Z,2.20
2023-04-30T06:17:39.639Z,2.20
2023-04-30T06:20:07.123Z,2.88
2023-04-30T06:22:34.170Z,2.20
2023-04-30T06:25:00.763Z,2.85
2023-04-30T06:27:31.933Z,2.28
2023-04-30T06:29:58.407Z,2.45
2023-04-30T06:32:25.732Z,3.05
2023-04-30T06:34:52.184Z,2.70
2023-04-30T06:37:20.709Z,2.10
2023-04-30T06:39:47.040Z,2.30
2023-04-30T06:42:13.309Z,2.65
2023-04-30T06:44:39.463Z,2.70
2023-04-30T06:47:05.755Z,2.85
2023-04-30T06:49:32.090Z,2.60
2023-04-30T06:51:58.505Z,2.47
2023-04-30T06:54:27.349Z,3.08
2023-04-30T06:56:53.723Z,2.22
2023-04-30T06:59:20.655Z,2.40
2023-04-30T07:01:46.948Z,2.45
2023-04-30T07:04:13.297Z,2.90
2023-04-30T07:06:42.127Z,2.90
2023-04-30T07:09:09.240Z,3.17
2023-04-30T07:11:35.450Z,2.83
2023-04-30T07:14:01.748Z,3.30
2023-04-30T07:16:28.297Z,2.50
2023-04-30T07:18:54.450Z,2.53
2023-04-30T07:21:21.572Z,2.63
2023-04-30T07:23:48.650Z,2.92
2023-04-30T07:26:15.448Z,3.22
2023-04-30T07:28:41.663Z,2.35
2023-04-30T07:31:07.946Z,2.78
2023-04-30T07:33:34.252Z,2.65
2023-04-30T07:36:03.288Z,3.00
2023-04-30T07:38:29.528Z,2.30
2023-04-30T07:40:55.886Z,2.47
2023-04-30T07:43:22.060Z,2.22
2023-04-30T07:45:50.465Z,2.42
2023-04-30T07:48:18.065Z,2.30
2023-04-30T07:50:52.621Z,2.20
2023-04-30T07:53:19.442Z,2.20
2023-04-30T07:55:45.792Z,2.60
2023-04-30T07:58:12.134Z,1.77
2023-04-30T08:00:38.470Z,2.45
2023-04-30T08:03:04.863Z,2.40
2023-04-30T08:05:31.254Z,2.55
2023-04-30T08:08:00.138Z,2.10
2023-04-30T08:10:26.606Z,2.10
2023-04-30T08:12:53.245Z,2.75
2023-04-30T08:15:21.693Z,2.90
2023-04-30T08:17:51.359Z,2.17
2023-04-30T08:20:18.197Z,1.90
2023-04-30T08:22:45.121Z,1.85
2023-04-30T08:25:12.189Z,2.47
2023-04-30T08:27:42.435Z,2.15
2023-04-30T08:30:08.940Z,1.95
2023-04-30T08:32:36.698Z,1.60
2023-04-30T08:35:04.548Z,2.33
2023-04-30T08:37:31.213Z,1.70
2023-04-30T08:39:58.022Z,2.03
2023-04-30T08:42:36.762Z,1.75
2023-04-30T08:45:08.921Z,1.63
2023-04-30T08:47:35.828Z,1.80
2023-04-30T08:50:02.415Z,1.45
2023-04-30T08:52:29.771Z,2.00
2023-04-30T08:54:57.360Z,1.50
2023-04-30T08:57:23.817Z,1.75
2023-04-30T08:59:50.153Z,1.20
2023-04-30T09:02:16.544Z,1.60
2023-04-30T09:04:46.352Z,1.85
2023-04-30T09:07:16.350Z,1.80
2023-04-30T09:09:42.600Z,2.10
2023-04-30T09:12:15.160Z,1.38
2023-04-30T09:14:58.311Z,1.85
2023-04-30T09:17:25.842Z,1.52
2023-04-30T09:19:54.967Z,2.30
2023-04-30T09:22:23.263Z,1.27
2023-04-30T09:24:51.167Z,1.23
2023-04-30T09:27:22.071Z,1.70
2023-04-30T09:29:48.583Z,1.30
2023-04-30T09:32:15.016Z,0.95
2023-04-30T09:34:45.357Z,1.10
2023-04-30T09:37:12.090Z,1.70
2023-04-30T09:39:54.877Z,1.20
2023-04-30T09:42:21.969Z,1.23
2023-04-30T09:44:48.778Z,1.65
2023-04-30T09:47:18.838Z,1.23
2023-04-30T09:49:52.021Z,1.20
2023-04-30T09:52:19.129Z,1.50
2023-04-30T09:54:46.010Z,1.13
2023-04-30T09:57:14.212Z,1.25
2023-04-30T09:59:44.624Z,1.52
2023-04-30T10:02:14.717Z,1.92
2023-04-30T10:04:44.969Z,1.73
2023-04-30T10:07:15.752Z,1.50
2023-04-30T10:09:52.080Z,1.70
2023-04-30T10:12:26.232Z,1.55
2023-04-30T10:14:57.836Z,1.45
2023-04-30T10:17:27.707Z,1.60
2023-04-30T10:19:57.831Z,1.52
2023-04-30T10:22:24.400Z,1.60
2023-04-30T10:24:50.769Z,1.40
2023-04-30T10:27:17.753Z,2.13
2023-04-30T10:29:44.626Z,1.45
2023-04-30T10:32:12.673Z,2.33
2023-04-30T10:34:45.682Z,1.40
2023-04-30T10:37:18.682Z,1.55
2023-04-30T10:39:45.065Z,2.25
2023-04-30T10:42:14.146Z,1.60
2023-04-30T10:44:40.497Z,1.60
2023-04-30T10:47:07.515Z,1.55
2023-04-30T10:49:34.540Z,2.03
2023-04-30T10:52:06.282Z,1.88
2023-04-30T10:54:39.336Z,1.52
2023-04-30T10:57:17.435Z,1.60
2023-04-30T10:59:51.532Z,2.05
2023-04-30T11:02:17.870Z,2.10
2023-04-30T11:05:07.210Z,1.80
2023-04-30T11:07:34.177Z,1.70
2023-04-30T11:10:01.166Z,2.45
2023-04-30T11:12:28.205Z,2.05
2023-04-30T11:15:13.029Z,2.00
2023-04-30T11:17:39.448Z,1.92
2023-04-30T11:20:06.611Z,1.45
2023-04-30T11:22:35.661Z,2.28
2023-04-30T11:25:12.996Z,2.00
2023-04-30T11:27:46.319Z,2.00
2023-04-30T11:30:17.016Z,1.55
2023-04-30T11:32:48.119Z,1.42
2023-04-30T11:35:18.417Z,1.67
2023-04-30T11:37:44.921Z,2.00
2023-04-30T11:40:14.629Z,2.58
2023-04-30T11:42:46.175Z,1.88
2023-04-30T11:45:17.264Z,1.67
2023-04-30T11:47:48.494Z,2.17
2023-04-30T11:50:28.901Z,2.60
2023-04-30T11:52:56.927Z,1.73
2023-04-30T11:55:25.102Z,1.73
2023-04-30T11:57:55.253Z,1.55
2023-04-30T12:00:29.646Z,2.17
2023-04-30T12:02:56.816Z,2.13
2023-04-30T12:05:27.483Z,2.30
2023-04-30T12:07:59.609Z,1.95
2023-04-30T12:10:31.546Z,2.22
2023-04-30T12:12:58.294Z,2.28
2023-04-30T12:15:28.959Z,1.80
2023-04-30T12:17:59.264Z,2.38
2023-04-30T12:20:31.118Z,1.58
2023-04-30T12:22:58.255Z,2.28
2023-04-30T12:25:24.694Z,2.45
2023-04-30T12:27:52.558Z,2.05
2023-04-30T12:30:24.494Z,2.20
2023-04-30T12:32:53.233Z,2.13
2023-04-30T12:35:24.753Z,2.00
2023-04-30T12:37:52.906Z,2.50
2023-04-30T12:40:21.105Z,2.50
2023-04-30T12:42:48.136Z,2.45
2023-04-30T12:45:47.856Z,1.80
2023-04-30T12:48:15.470Z,1.75
2023-04-30T12:50:45.459Z,2.03
2023-04-30T12:53:11.664Z,2.25
2023-04-30T12:55:38.959Z,1.48
2023-04-30T12:58:16.405Z,2.42
2023-04-30T13:00:51.261Z,2.03
2023-04-30T13:03:20.665Z,2.60
2023-04-30T13:05:53.691Z,1.73
2023-04-30T13:08:21.813Z,1.95
2023-04-30T13:10:48.465Z,1.90
2023-04-30T13:13:16.224Z,3.00
2023-04-30T13:15:46.256Z,2.05
2023-04-30T13:18:15.360Z,1.95
2023-04-30T13:20:41.641Z,2.00
2023-04-30T13:23:08.327Z,2.05
2023-04-30T13:25:35.442Z,1.88
2023-04-30T13:28:02.274Z,1.98
2023-04-30T13:30:31.478Z,1.58
2023-04-30T13:32:58.835Z,1.85
2023-04-30T13:35:25.224Z,1.55
2023-04-30T13:37:53.708Z,2.28
2023-04-30T13:40:20.893Z,1.67
2023-04-30T13:42:48.820Z,1.70
2023-04-30T13:45:16.003Z,1.73
2023-04-30T13:47:42.280Z,2.00
2023-04-30T13:50:09.594Z,1.70
2023-04-30T13:52:35.995Z,1.88
2023-04-30T13:55:03.522Z,1.52
2023-04-30T13:57:32.477Z,1.25
2023-04-30T13:59:59.278Z,1.85
2023-04-30T14:02:29.328Z,1.70
2023-04-30T14:05:05.136Z,1.45
2023-04-30T14:07:32.815Z,1.63
2023-04-30T14:09:59.077Z,1.90
2023-04-30T14:12:25.320Z,1.83
2023-04-30T14:14:51.910Z,1.80
2023-04-30T14:17:18.078Z,1.83
2023-04-30T14:19:44.411Z,1.73
2023-04-30T14:22:10.805Z,1.55
2023-04-30T14:24:36.936Z,1.50
2023-04-30T14:27:03.987Z,1.60
2023-04-30T14:29:30.613Z,1.90
2023-04-30T14:31:57.716Z,1.80
2023-04-30T14:34:24.368Z,1.92
2023-04-30T14:36:50.650Z,1.88
2023-04-30T14:39:17.032Z,1.85
2023-04-30T14:41:43.899Z,1.75
2023-04-30T14:44:10.455Z,1.90
2023-04-30T14:46:37.225Z,1.63
2023-04-30T14:49:04.284Z,1.33
2023-04-30T14:51:31.986Z,1.75
2023-04-30T14:53:59.123Z,1.63
2023-04-30T14:56:29.818Z,1.67
2023-04-30T14:58:56.794Z,1.55
2023-04-30T15:01:23.237Z,1.80
2023-04-30T15:03:49.693Z,1.80
2023-04-30T15:06:16.821Z,1.60
2023-04-30T15:08:43.423Z,1.60
2023-04-30T15:11:10.576Z,1.70
2023-04-30T15:13:39.960Z,2.00
2023-04-30T15:16:08.924Z,2.10
2023-04-30T15:18:35.595Z,2.30
2023-04-30T15:21:01.967Z,2.03
2023-04-30T15:23:31.449Z,1.58
2023-04-30T15:26:00.359Z,2.22
2023-04-30T15:28:27.134Z,2.22
2023-04-30T15:30:56.642Z,1.83
2023-04-30T15:33:28.710Z,1.67
2023-04-30T15:35:55.153Z,2.28
2023-04-30T15:38:21.589Z,1.65
2023-04-30T15:40:48.036Z,1.90
2023-04-30T15:43:14.363Z,1.40
2023-04-30T15:45:40.894Z,2.03
2023-04-30T15:48:09.369Z,1.60
2023-04-30T15:50:36.186Z,2.00
2023-04-30T15:53:02.612Z,2.20
2023-04-30T15:55:28.691Z,2.13
2023-04-30T15:57:54.953Z,1.77
2023-04-30T16:00:23.243Z,1.85
2023-04-30T16:02:49.591Z,1.98
2023-04-30T16:05:16.025Z,1.70
2023-04-30T16:07:51.494Z,1.83
2023-04-30T16:10:19.595Z,1.80
2023-04-30T16:12:45.842Z,1.70
2023-04-30T16:15:12.191Z,2.10
2023-04-30T16:17:39.783Z,2.50
2023-04-30T16:20:07.863Z,1.58
2023-04-30T16:22:35.129Z,1.80
2023-04-30T16:25:01.560Z,1.65
2023-04-30T16:27:28.864Z,1.80
2023-04-30T16:29:56.399Z,1.35
2023-04-30T16:32:23.052Z,2.05
2023-04-30T16:34:51.557Z,1.73
2023-04-30T16:37:17.638Z,1.90
2023-04-30T16:39:44.046Z,1.88
2023-04-30T16:42:13.394Z,1.85
2023-04-30T16:44:40.006Z,1.80
2023-04-30T16:47:06.647Z,1.95
2023-04-30T16:49:32.840Z,2.15
2023-04-30T16:51:59.430Z,2.20
2023-04-30T16:54:25.799Z,1.95
2023-04-30T16:56:52.233Z,1.25
2023-04-30T16:59:18.646Z,3.13
2023-04-30T17:01:49.378Z,2.10
2023-04-30T17:04:15.596Z,1.90
2023-04-30T17:06:42.124Z,1.90
2023-04-30T17:09:11.254Z,1.48
2023-04-30T17:11:37.374Z,1.42
2023-04-30T17:14:03.496Z,2.10
2023-04-30T17:16:32.820Z,1.95
2023-04-30T17:18:59.858Z,1.77
2023-04-30T17:21:29.248Z,1.40
2023-04-30T17:23:59.186Z,2.33
2023-04-30T17:26:27.906Z,2.00
2023-04-30T17:28:54.066Z,2.08
2023-04-30T17:31:20.556Z,2.28
2023-04-30T17:33:47.522Z,1.98
2023-04-30T17:36:13.817Z,1.92
2023-04-30T17:38:40.390Z,2.00
2023-04-30T17:41:06.710Z,1.67
2023-04-30T17:43:32.890Z,2.03
2023-04-30T17:46:00.051Z,2.05
2023-04-30T17:48:26.937Z,2.00
2023-04-30T17:50:54.150Z,2.67
2023-04-30T17:53:20.362Z,2.00
2023-04-30T17:55:46.403Z,2.33
2023-04-30T17:58:12.607Z,1.70
2023-04-30T18:00:39.960Z,2.25
2023-04-30T18:03:06.368Z,1.95
2023-04-30T18:05:35.300Z,2.03
2023-04-30T18:08:02.164Z,1.88
2023-04-30T18:10:28.628Z,1.90
2023-04-30T18:13:07.097Z,2.13
2023-04-30T18:15:36.120Z,2.05
2023-04-30T18:18:02.328Z,2.03
2023-04-30T18:20:28.800Z,2.10
2023-04-30T18:22:55.813Z,2.05
2023-04-30T18:25:22.398Z,2.15
2023-04-30T18:27:52.311Z,1.40
2023-04-30T18:30:18.639Z,2.00
2023-04-30T18:32:45.962Z,1.83
2023-04-30T18:35:15.013Z,1.70
2023-04-30T18:37:41.522Z,2.00
2023-04-30T18:40:08.502Z,1.90
2023-04-30T18:42:38.193Z,1.73
2023-04-30T18:45:09.015Z,1.58
2023-04-30T18:47:38.309Z,1.77
2023-04-30T18:50:09.938Z,1.77
2023-04-30T18:52:37.211Z,1.40
2023-04-30T18:55:08.210Z,1.67
2023-04-30T18:57:35.055Z,1.42
2023-04-30T19:00:01.212Z,1.50
2023-04-30T19:02:27.725Z,1.55
2023-04-30T19:04:54.429Z,1.70
2023-04-30T19:07:20.936Z,1.30
2023-04-30T19:09:48.184Z,1.90
2023-04-30T19:12:15.320Z,1.60
2023-04-30T19:14:41.464Z,1.73
2023-04-30T19:17:08.072Z,1.45
2023-04-30T19:19:34.483Z,2.03
2023-04-30T19:22:01.107Z,1.50
2023-04-30T19:24:27.398Z,1.15
2023-04-30T19:26:53.627Z,1.65
2023-04-30T19:29:20.066Z,1.85
2023-04-30T19:31:48.714Z,1.65
2023-04-30T19:34:15.808Z,1.50
2023-04-30T19:36:43.574Z,2.17
2023-04-30T19:39:15.977Z,2.67
2023-04-30T19:41:42.478Z,2.13
2023-04-30T19:44:09.907Z,2.33
2023-04-30T19:46:36.163Z,2.45
2023-04-30T19:49:03.655Z,3.00
2023-04-30T19:51:33.283Z,2.88
2023-04-30T19:54:01.644Z,2.60
2023-04-30T19:56:27.937Z,3.00
2023-04-30T19:58:54.302Z,3.25
2023-04-30T20:01:20.609Z,3.20
2023-04-30T20:03:47.252Z,4.22
2023-04-30T20:06:13.726Z,3.67
2023-04-30T20:08:39.939Z,4.13
2023-04-30T20:11:06.285Z,4.93
2023-04-30T20:13:32.631Z,4.53
2023-04-30T20:15:58.796Z,4.25
2023-04-30T20:18:28.013Z,4.90
2023-04-30T20:20:57.068Z,5.40
2023-04-30T20:23:23.707Z,5.53
2023-04-30T20:25:50.370Z,4.80
2023-04-30T20:28:17.870Z,5.80
2023-04-30T20:30:44.204Z,4.53
2023-04-30T20:33:12.191Z,3.72
2023-04-30T20:35:50.878Z,3.58
2023-04-30T20:38:19.998Z,3.90
2023-04-30T20:40:46.826Z,4.35
2023-04-30T20:43:13.607Z,4.57
2023-04-30T20:45:42.139Z,3.35
2023-04-30T20:48:08.772Z,3.65
2023-04-30T20:50:37.016Z,3.33
2023-04-30T20:53:03.677Z,4.00
2023-04-30T20:55:30.227Z,4.07
2023-04-30T20:57:56.968Z,4.15
2023-04-30T21:00:23.341Z,3.45
2023-04-30T21:02:49.832Z,4.07
2023-04-30T21:05:16.325Z,3.88
2023-04-30T21:07:42.489Z,3.92
2023-04-30T21:10:08.977Z,4.60
2023-04-30T21:12:35.423Z,4.22
2023-04-30T21:15:01.808Z,4.60
2023-04-30T21:17:28.092Z,5.03
2023-04-30T21:19:56.261Z,4.00
2023-04-30T21:22:33.974Z,3.92
2023-04-30T21:25:00.087Z,4.03
2023-04-30T21:27:26.522Z,3.75
2023-04-30T21:29:52.979Z,4.13
2023-04-30T21:32:19.375Z,3.65
2023-04-30T21:34:45.919Z,4.30
2023-04-30T21:37:12.135Z,3.63
2023-04-30T21:39:38.557Z,4.20
2023-04-30T21:42:05.222Z,3.45
2023-04-30T21:44:32.724Z,3.33
2023-04-30T21:46:59.644Z,2.83
2023-04-30T21:49:26.087Z,3.35
2023-04-30T21:51:52.318Z,2.80
2023-04-30T21:54:19.072Z,2.78
2023-04-30T21:56:45.586Z,2.65
2023-04-30T21:59:12.141Z,3.03
2023-04-30T22:01:38.899Z,2.97
2023-04-30T22:04:05.531Z,3.30
2023-04-30T22:06:34.726Z,3.42
2023-04-30T22:09:01.346Z,3.42
2023-04-30T22:11:27.789Z,3.65
2023-04-30T22:13:53.913Z,3.00
2023-04-30T22:16:20.259Z,2.90
2023-04-30T22:18:47.117Z,3.95
2023-04-30T22:21:13.194Z,3.15
2023-04-30T22:23:40.415Z,3.30
2023-04-30T22:26:09.495Z,3.25
2023-04-30T22:28:37.144Z,3.30
2023-04-30T22:31:04.069Z,2.88
2023-04-30T22:33:37.836Z,2.83
2023-04-30T22:36:06.031Z,3.30
2023-04-30T22:38:39.725Z,3.15
2023-04-30T22:41:10.868Z,3.03
2023-04-30T22:43:39.488Z,3.35
2023-04-30T22:46:11.830Z,3.08
2023-04-30T22:48:41.953Z,3.20
2023-04-30T22:51:10.556Z,3.22
2023-04-30T22:53:41.259Z,3.75
2023-04-30T22:56:12.107Z,2.95
2023-04-30T22:58:40.494Z,3.20
2023-04-30T23:01:12.251Z,3.00
2023-04-30T23:03:43.667Z,3.13
2023-04-30T23:06:16.504Z,3.50
2023-04-30T23:08:44.653Z,4.03
2023-04-30T23:11:14.605Z,3.53
2023-04-30T23:13:47.178Z,3.92
2023-04-30T23:16:22.211Z,4.22
2023-04-30T23:18:56.516Z,2.92
2023-04-30T23:21:32.564Z,2.83
2023-04-30T23:24:01.981Z,2.63
2023-04-30T23:26:35.974Z,2.85
2023-04-30T23:29:06.407Z,2.47
2023-04-30T23:31:33.963Z,2.55
2023-04-30T23:34:11.748Z,2.50
2023-04-30T23:36:42.619Z,2.67
2023-04-30T23:39:13.538Z,2.47
2023-04-30T23:41:41.003Z,2.83
2023-04-30T23:44:09.055Z,2.83
2023-04-30T23:46:44.819Z,2.92
2023-04-30T23:49:16.056Z,2.78
2023-04-30T23:51:55.648Z,2.60
2023-04-30T23:54:24.791Z,2.58
2023-04-30T23:57:02.609Z,4.45
2023-04-30T23:59:29.922Z,4.63
